Columbus, Ohio
Traffic Map
Current Weather Conditions
Columbus, Ohio
Overcast
Overcast
59°
Feels Like: 59°
Wind Chill: 59° Ceiling: 23000
Heat Index: 59° Visibility: 10mi
Dew Point: 39° Wind: 8mph
Humidity: 48% Direction: 80° (E)
Pressure: 29.96in Gusts: 0mph
Raw Report DataKCMH 190751Z 08007KT 10SM OVC230 15/04 A2996 RMK AO2 SLP140 T01500039
Traffic Incident Summary
Active as of:
Severity:
Category:
InformationThere was an issue retrieving the traffic information for this location. Please try a different location or try again shortly.
Advertisements
Track Severe Weather on mobile